sensor_id;sensor_type;location;lat;lon;timestamp;pressure;altitude;pressure_sealevel;temperature;humidity
78409;BME280;67697;50.750;-3.270;2023-06-22T00:02:13;101206.07;;;20.47;51.54
78409;BME280;67697;50.750;-3.270;2023-06-22T00:04:38;101207.29;;;20.16;51.15
78409;BME280;67697;50.750;-3.270;2023-06-22T00:07:05;101213.97;;;19.90;53.44
78409;BME280;67697;50.750;-3.270;2023-06-22T00:09:31;101212.66;;;19.41;54.11
78409;BME280;67697;50.750;-3.270;2023-06-22T00:11:55;101212.51;;;20.39;52.74
78409;BME280;67697;50.750;-3.270;2023-06-22T00:14:21;101216.53;;;19.40;54.06
78409;BME280;67697;50.750;-3.270;2023-06-22T00:16:46;101214.38;;;18.65;58.10
78409;BME280;67697;50.750;-3.270;2023-06-22T00:19:16;101213.23;;;17.91;59.61
78409;BME280;67697;50.750;-3.270;2023-06-22T00:21:37;101207.57;;;18.82;57.53
78409;BME280;67697;50.750;-3.270;2023-06-22T00:24:03;101213.36;;;18.01;60.07
78409;BME280;67697;50.750;-3.270;2023-06-22T00:26:29;101208.03;;;18.73;58.01
78409;BME280;67697;50.750;-3.270;2023-06-22T00:28:53;101207.78;;;18.66;57.79
78409;BME280;67697;50.750;-3.270;2023-06-22T00:31:19;101211.85;;;19.18;56.71
78409;BME280;67697;50.750;-3.270;2023-06-22T00:33:46;101212.90;;;19.71;54.90
78409;BME280;67697;50.750;-3.270;2023-06-22T00:36:11;101218.77;;;17.69;59.51
78409;BME280;67697;50.750;-3.270;2023-06-22T00:38:36;101218.46;;;17.37;62.02
78409;BME280;67697;50.750;-3.270;2023-06-22T00:41:02;101216.14;;;17.60;60.85
78409;BME280;67697;50.750;-3.270;2023-06-22T00:43:27;101222.58;;;17.75;60.90
78409;BME280;67697;50.750;-3.270;2023-06-22T00:45:52;101221.05;;;17.06;63.25
78409;BME280;67697;50.750;-3.270;2023-06-22T00:48:18;101222.44;;;17.57;61.81
78409;BME280;67697;50.750;-3.270;2023-06-22T00:50:43;101223.43;;;17.53;62.02
78409;BME280;67697;50.750;-3.270;2023-06-22T00:53:09;101218.16;;;17.54;60.68
78409;BME280;67697;50.750;-3.270;2023-06-22T00:55:35;101220.51;;;17.12;62.37
78409;BME280;67697;50.750;-3.270;2023-06-22T00:58:00;101223.12;;;17.33;61.58
78409;BME280;67697;50.750;-3.270;2023-06-22T01:00:25;101219.56;;;17.85;59.77
78409;BME280;67697;50.750;-3.270;2023-06-22T01:02:51;101221.09;;;16.70;62.90
78409;BME280;67697;50.750;-3.270;2023-06-22T01:05:17;101214.43;;;17.51;60.14
78409;BME280;67697;50.750;-3.270;2023-06-22T01:07:50;101215.13;;;17.47;60.13
78409;BME280;67697;50.750;-3.270;2023-06-22T01:10:14;101217.40;;;17.24;61.24
78409;BME280;67697;50.750;-3.270;2023-06-22T01:12:40;101217.84;;;16.42;64.06
78409;BME280;67697;50.750;-3.270;2023-06-22T01:15:05;101218.66;;;16.40;64.24
78409;BME280;67697;50.750;-3.270;2023-06-22T01:17:26;101221.52;;;16.50;64.60
78409;BME280;67697;50.750;-3.270;2023-06-22T01:19:52;101221.84;;;16.96;62.52
78409;BME280;67697;50.750;-3.270;2023-06-22T01:22:16;101218.53;;;15.62;65.11
78409;BME280;67697;50.750;-3.270;2023-06-22T01:24:48;101221.40;;;17.31;61.63
78409;BME280;67697;50.750;-3.270;2023-06-22T01:27:14;101224.63;;;17.40;60.15
78409;BME280;67697;50.750;-3.270;2023-06-22T01:29:32;101229.35;;;17.03;61.97
78409;BME280;67697;50.750;-3.270;2023-06-22T01:31:57;101229.03;;;17.79;60.20
78409;BME280;67697;50.750;-3.270;2023-06-22T01:34:23;101226.47;;;18.43;57.74
78409;BME280;67697;50.750;-3.270;2023-06-22T01:36:48;101231.00;;;17.67;60.29
78409;BME280;67697;50.750;-3.270;2023-06-22T01:39:14;101228.55;;;17.66;60.77
78409;BME280;67697;50.750;-3.270;2023-06-22T01:41:39;101226.21;;;17.84;59.31
78409;BME280;67697;50.750;-3.270;2023-06-22T01:44:05;101229.88;;;18.20;57.93
78409;BME280;67697;50.750;-3.270;2023-06-22T01:46:29;101232.06;;;17.93;57.11
78409;BME280;67697;50.750;-3.270;2023-06-22T01:48:55;101237.13;;;17.34;58.39
78409;BME280;67697;50.750;-3.270;2023-06-22T01:51:20;101238.23;;;17.07;59.83
78409;BME280;67697;50.750;-3.270;2023-06-22T01:53:45;101237.59;;;17.36;59.37
78409;BME280;67697;50.750;-3.270;2023-06-22T01:56:11;101242.67;;;17.28;58.95
78409;BME280;67697;50.750;-3.270;2023-06-22T01:58:40;101245.94;;;17.79;58.27
78409;BME280;67697;50.750;-3.270;2023-06-22T02:01:08;101247.05;;;17.64;58.43
78409;BME280;67697;50.750;-3.270;2023-06-22T02:03:31;101246.69;;;18.14;57.12
78409;BME280;67697;50.750;-3.270;2023-06-22T02:05:56;101242.05;;;17.97;57.12
78409;BME280;67697;50.750;-3.270;2023-06-22T02:08:20;101242.63;;;18.12;57.06
78409;BME280;67697;50.750;-3.270;2023-06-22T02:10:43;101237.39;;;18.21;56.61
78409;BME280;67697;50.750;-3.270;2023-06-22T02:13:09;101236.99;;;17.99;57.40
78409;BME280;67697;50.750;-3.270;2023-06-22T02:15:33;101241.07;;;17.65;57.16
78409;BME280;67697;50.750;-3.270;2023-06-22T02:17:59;101243.22;;;17.67;57.43
78409;BME280;67697;50.750;-3.270;2023-06-22T02:20:24;101243.50;;;17.59;57.29
78409;BME280;67697;50.750;-3.270;2023-06-22T02:22:49;101245.92;;;17.86;56.06
78409;BME280;67697;50.750;-3.270;2023-06-22T02:25:14;101247.30;;;18.12;55.87
78409;BME280;67697;50.750;-3.270;2023-06-22T02:27:40;101249.67;;;17.50;56.17
78409;BME280;67697;50.750;-3.270;2023-06-22T02:30:07;101248.45;;;17.78;55.62
78409;BME280;67697;50.750;-3.270;2023-06-22T02:32:30;101248.01;;;17.96;55.71
78409;BME280;67697;50.750;-3.270;2023-06-22T02:34:55;101250.30;;;18.18;55.70
78409;BME280;67697;50.750;-3.270;2023-06-22T02:37:21;101259.68;;;18.07;56.86
78409;BME280;67697;50.750;-3.270;2023-06-22T02:39:46;101255.48;;;18.63;55.12
78409;BME280;67697;50.750;-3.270;2023-06-22T02:42:12;101252.78;;;18.93;54.05
78409;BME280;67697;50.750;-3.270;2023-06-22T02:44:38;101256.26;;;18.57;55.22
78409;BME280;67697;50.750;-3.270;2023-06-22T02:47:04;101258.06;;;18.53;54.87
78409;BME280;67697;50.750;-3.270;2023-06-22T02:49:29;101260.18;;;18.10;55.35
78409;BME280;67697;50.750;-3.270;2023-06-22T02:51:54;101260.32;;;18.09;55.14
78409;BME280;67697;50.750;-3.270;2023-06-22T02:54:20;101258.50;;;18.29;54.77
78409;BME280;67697;50.750;-3.270;2023-06-22T02:56:46;101259.88;;;17.90;56.44
78409;BME280;67697;50.750;-3.270;2023-06-22T02:59:11;101260.10;;;17.76;56.30
78409;BME280;67697;50.750;-3.270;2023-06-22T03:01:36;101265.24;;;17.23;57.37
78409;BME280;67697;50.750;-3.270;2023-06-22T03:04:01;101266.67;;;16.61;58.90
78409;BME280;67697;50.750;-3.270;2023-06-22T03:06:26;101265.80;;;16.78;58.43
78409;BME280;67697;50.750;-3.270;2023-06-22T03:08:51;101263.90;;;15.90;61.68
78409;BME280;67697;50.750;-3.270;2023-06-22T03:11:17;101261.51;;;15.79;62.41
78409;BME280;67697;50.750;-3.270;2023-06-22T03:13:42;101260.47;;;14.92;64.27
78409;BME280;67697;50.750;-3.270;2023-06-22T03:16:07;101257.64;;;16.27;62.95
78409;BME280;67697;50.750;-3.270;2023-06-22T03:18:32;101256.24;;;16.66;60.62
78409;BME280;67697;50.750;-3.270;2023-06-22T03:20:58;101256.94;;;15.66;62.46
78409;BME280;67697;50.750;-3.270;2023-06-22T03:23:24;101251.07;;;16.54;60.18
78409;BME280;67697;50.750;-3.270;2023-06-22T03:25:48;101253.33;;;16.18;61.81
78409;BME280;67697;50.750;-3.270;2023-06-22T03:28:14;101257.43;;;15.56;63.19
78409;BME280;67697;50.750;-3.270;2023-06-22T03:30:39;101253.37;;;16.16;62.33
78409;BME280;67697;50.750;-3.270;2023-06-22T03:33:04;101250.90;;;15.97;62.47
78409;BME280;67697;50.750;-3.270;2023-06-22T03:35:30;101247.19;;;16.26;62.40
78409;BME280;67697;50.750;-3.270;2023-06-22T03:37:56;101246.43;;;15.82;63.40
78409;BME280;67697;50.750;-3.270;2023-06-22T03:40:21;101247.59;;;15.30;64.36
78409;BME280;67697;50.750;-3.270;2023-06-22T03:42:46;101247.14;;;15.61;63.97
78409;BME280;67697;50.750;-3.270;2023-06-22T03:45:11;101244.72;;;16.46;61.94
78409;BME280;67697;50.750;-3.270;2023-06-22T03:47:37;101246.27;;;15.98;62.97
78409;BME280;67697;50.750;-3.270;2023-06-22T03:50:02;101248.62;;;16.59;61.29
78409;BME280;67697;50.750;-3.270;2023-06-22T03:52:28;101247.58;;;16.97;60.23
78409;BME280;67697;50.750;-3.270;2023-06-22T03:54:53;101251.16;;;16.38;60.91
78409;BME280;67697;50.750;-3.270;2023-06-22T03:57:18;101251.98;;;16.00;62.02
78409;BME280;67697;50.750;-3.270;2023-06-22T03:59:44;101252.99;;;16.08;61.35
78409;BME280;67697;50.750;-3.270;2023-06-22T04:02:10;101252.90;;;15.89;61.83
78409;BME280;67697;50.750;-3.270;2023-06-22T04:04:34;101249.03;;;15.94;61.99
78409;BME280;67697;50.750;-3.270;2023-06-22T04:07:00;101250.67;;;16.26;60.98
78409;BME280;67697;50.750;-3.270;2023-06-22T04:09:25;101250.00;;;16.18;62.27
78409;BME280;67697;50.750;-3.270;2023-06-22T04:11:51;101248.23;;;16.18;61.44
78409;BME280;67697;50.750;-3.270;2023-06-22T04:14:17;101246.90;;;16.49;60.21
78409;BME280;67697;50.750;-3.270;2023-06-22T04:16:43;101249.36;;;14.86;64.06
78409;BME280;67697;50.750;-3.270;2023-06-22T04:19:07;101250.04;;;15.14;63.94
78409;BME280;67697;50.750;-3.270;2023-06-22T04:21:33;101250.45;;;15.66;62.45
78409;BME280;67697;50.750;-3.270;2023-06-22T04:23:58;101249.71;;;15.73;62.53
78409;BME280;67697;50.750;-3.270;2023-06-22T04:26:24;101247.43;;;15.47;62.40
78409;BME280;67697;50.750;-3.270;2023-06-22T04:28:49;101246.94;;;14.22;66.00
78409;BME280;67697;50.750;-3.270;2023-06-22T04:31:14;101247.31;;;15.37;64.10
78409;BME280;67697;50.750;-3.270;2023-06-22T04:33:40;101246.11;;;15.26;64.39
78409;BME280;67697;50.750;-3.270;2023-06-22T04:36:05;101246.41;;;14.20;67.61
78409;BME280;67697;50.750;-3.270;2023-06-22T04:38:31;101245.95;;;14.67;66.14
78409;BME280;67697;50.750;-3.270;2023-06-22T04:40:57;101240.24;;;15.54;64.09
78409;BME280;67697;50.750;-3.270;2023-06-22T04:43:22;101242.75;;;15.26;64.36
78409;BME280;67697;50.750;-3.270;2023-06-22T04:45:47;101243.43;;;15.05;63.67
78409;BME280;67697;50.750;-3.270;2023-06-22T04:48:12;101246.78;;;15.26;62.76
78409;BME280;67697;50.750;-3.270;2023-06-22T04:50:38;101250.38;;;15.29;63.10
78409;BME280;67697;50.750;-3.270;2023-06-22T04:53:04;101253.63;;;15.88;62.22
78409;BME280;67697;50.750;-3.270;2023-06-22T04:55:28;101252.20;;;15.17;62.96
78409;BME280;67697;50.750;-3.270;2023-06-22T04:57:53;101252.78;;;16.05;61.55
78409;BME280;67697;50.750;-3.270;2023-06-22T05:00:20;101254.94;;;14.93;63.25
78409;BME280;67697;50.750;-3.270;2023-06-22T05:02:46;101255.04;;;15.67;61.62
78409;BME280;67697;50.750;-3.270;2023-06-22T05:05:10;101258.06;;;14.54;65.71
78409;BME280;67697;50.750;-3.270;2023-06-22T05:07:36;101258.12;;;15.20;64.04
78409;BME280;67697;50.750;-3.270;2023-06-22T05:10:02;101260.16;;;14.65;65.51
78409;BME280;67697;50.750;-3.270;2023-06-22T05:12:28;101257.10;;;14.19;65.36
78409;BME280;67697;50.750;-3.270;2023-06-22T05:14:52;101254.03;;;14.77;64.17
78409;BME280;67697;50.750;-3.270;2023-06-22T05:17:18;101254.85;;;16.43;61.03
78409;BME280;67697;50.750;-3.270;2023-06-22T05:19:43;101253.09;;;16.51;60.19
78409;BME280;67697;50.750;-3.270;2023-06-22T05:22:09;101257.60;;;17.19;58.20
78409;BME280;67697;50.750;-3.270;2023-06-22T05:24:35;101256.00;;;16.93;58.39
78409;BME280;67697;50.750;-3.270;2023-06-22T05:27:00;101256.51;;;15.96;59.88
78409;BME280;67697;50.750;-3.270;2023-06-22T05:29:25;101259.52;;;16.13;60.57
78409;BME280;67697;50.750;-3.270;2023-06-22T05:31:51;101260.95;;;17.58;57.03
78409;BME280;67697;50.750;-3.270;2023-06-22T05:34:16;101256.11;;;16.62;59.74
78409;BME280;67697;50.750;-3.270;2023-06-22T05:36:42;101261.84;;;16.33;59.93
78409;BME280;67697;50.750;-3.270;2023-06-22T05:39:11;101260.09;;;15.95;61.57
78409;BME280;67697;50.750;-3.270;2023-06-22T05:41:33;101257.29;;;16.62;59.30
78409;BME280;67697;50.750;-3.270;2023-06-22T05:43:59;101254.08;;;17.38;57.73
78409;BME280;67697;50.750;-3.270;2023-06-22T05:46:24;101253.36;;;17.03;59.55
78409;BME280;67697;50.750;-3.270;2023-06-22T05:48:50;101256.28;;;17.08;59.82
78409;BME280;67697;50.750;-3.270;2023-06-22T05:51:15;101258.02;;;17.52;58.97
78409;BME280;67697;50.750;-3.270;2023-06-22T05:53:41;101258.60;;;17.24;59.33
78409;BME280;67697;50.750;-3.270;2023-06-22T05:56:06;101258.96;;;16.02;61.68
78409;BME280;67697;50.750;-3.270;2023-06-22T05:58:32;101260.42;;;16.67;60.43
78409;BME280;67697;50.750;-3.270;2023-06-22T06:00:57;101263.53;;;17.58;58.52
78409;BME280;67697;50.750;-3.270;2023-06-22T06:03:23;101263.44;;;16.93;60.32
78409;BME280;67697;50.750;-3.270;2023-06-22T06:05:48;101264.18;;;16.59;60.99
78409;BME280;67697;50.750;-3.270;2023-06-22T06:08:14;101266.08;;;16.28;62.33
78409;BME280;67697;50.750;-3.270;2023-06-22T06:10:39;101267.68;;;16.85;60.87
78409;BME280;67697;50.750;-3.270;2023-06-22T06:13:05;101265.10;;;17.02;60.51
78409;BME280;67697;50.750;-3.270;2023-06-22T06:15:31;101263.37;;;16.47;62.48
78409;BME280;67697;50.750;-3.270;2023-06-22T06:17:56;101261.84;;;16.85;61.41
78409;BME280;67697;50.750;-3.270;2023-06-22T06:20:23;101265.24;;;16.24;63.51
78409;BME280;67697;50.750;-3.270;2023-06-22T06:22:47;101270.85;;;15.60;64.46
78409;BME280;67697;50.750;-3.270;2023-06-22T06:25:13;101272.27;;;17.08;61.30
78409;BME280;67697;50.750;-3.270;2023-06-22T06:27:38;101272.12;;;16.41;63.07
78409;BME280;67697;50.750;-3.270;2023-06-22T06:30:05;101275.54;;;15.96;64.38
78409;BME280;67697;50.750;-3.270;2023-06-22T06:32:29;101276.77;;;16.75;63.87
78409;BME280;67697;50.750;-3.270;2023-06-22T06:34:55;101280.54;;;16.52;63.21
78409;BME280;67697;50.750;-3.270;2023-06-22T06:37:21;101277.43;;;16.32;64.02
78409;BME280;67697;50.750;-3.270;2023-06-22T06:39:46;101278.74;;;15.90;64.43
78409;BME280;67697;50.750;-3.270;2023-06-22T06:42:11;101278.43;;;15.98;64.08
78409;BME280;67697;50.750;-3.270;2023-06-22T06:44:37;101281.38;;;16.34;63.06
78409;BME280;67697;50.750;-3.270;2023-06-22T06:47:02;101285.61;;;17.90;60.44
78409;BME280;67697;50.750;-3.270;2023-06-22T06:49:28;101286.15;;;16.35;62.77
78409;BME280;67697;50.750;-3.270;2023-06-22T06:51:54;101287.58;;;16.79;61.82
78409;BME280;67697;50.750;-3.270;2023-06-22T06:54:19;101287.62;;;16.97;62.01
78409;BME280;67697;50.750;-3.270;2023-06-22T06:56:45;101289.69;;;17.02;62.35
78409;BME280;67697;50.750;-3.270;2023-06-22T06:59:10;101295.77;;;17.03;62.76
78409;BME280;67697;50.750;-3.270;2023-06-22T07:01:36;101296.55;;;17.61;60.13
78409;BME280;67697;50.750;-3.270;2023-06-22T07:04:01;101300.09;;;17.69;60.77
78409;BME280;67697;50.750;-3.270;2023-06-22T07:06:27;101301.26;;;17.94;60.82
78409;BME280;67697;50.750;-3.270;2023-06-22T07:08:53;101299.67;;;17.34;62.01
78409;BME280;67697;50.750;-3.270;2023-06-22T07:11:23;101298.07;;;16.79;63.44
78409;BME280;67697;50.750;-3.270;2023-06-22T07:13:44;101295.71;;;17.68;61.55
78409;BME280;67697;50.750;-3.270;2023-06-22T07:16:09;101298.80;;;16.40;64.39
78409;BME280;67697;50.750;-3.270;2023-06-22T07:18:35;101296.71;;;17.20;62.16
78409;BME280;67697;50.750;-3.270;2023-06-22T07:21:00;101295.84;;;18.61;59.32
78409;BME280;67697;50.750;-3.270;2023-06-22T07:23:26;101300.27;;;18.42;58.47
78409;BME280;67697;50.750;-3.270;2023-06-22T07:25:51;101297.84;;;18.41;57.71
78409;BME280;67697;50.750;-3.270;2023-06-22T07:28:17;101296.22;;;18.17;58.26
78409;BME280;67697;50.750;-3.270;2023-06-22T07:30:42;101292.10;;;18.87;56.40
78409;BME280;67697;50.750;-3.270;2023-06-22T07:33:08;101299.24;;;18.38;58.26
78409;BME280;67697;50.750;-3.270;2023-06-22T07:35:33;101296.82;;;18.86;56.87
78409;BME280;67697;50.750;-3.270;2023-06-22T07:37:59;101299.03;;;18.48;57.97
78409;BME280;67697;50.750;-3.270;2023-06-22T07:40:25;101291.51;;;19.06;57.14
78409;BME280;67697;50.750;-3.270;2023-06-22T07:42:50;101293.43;;;19.39;55.86
78409;BME280;67697;50.750;-3.270;2023-06-22T07:45:15;101292.59;;;19.58;54.52
78409;BME280;67697;50.750;-3.270;2023-06-22T07:47:41;101297.54;;;19.87;53.89
78409;BME280;67697;50.750;-3.270;2023-06-22T07:50:07;101297.11;;;19.22;54.90
78409;BME280;67697;50.750;-3.270;2023-06-22T07:52:32;101298.96;;;18.78;56.67
78409;BME280;67697;50.750;-3.270;2023-06-22T07:54:58;101298.47;;;19.32;55.32
78409;BME280;67697;50.750;-3.270;2023-06-22T07:57:23;101307.33;;;18.63;56.83
78409;BME280;67697;50.750;-3.270;2023-06-22T07:59:49;101306.36;;;18.42;58.15
78409;BME280;67697;50.750;-3.270;2023-06-22T08:02:15;101307.67;;;17.89;59.22
78409;BME280;67697;50.750;-3.270;2023-06-22T08:04:40;101306.82;;;18.02;60.43
78409;BME280;67697;50.750;-3.270;2023-06-22T08:07:05;101301.59;;;18.47;58.32
78409;BME280;67697;50.750;-3.270;2023-06-22T08:09:32;101297.50;;;18.60;57.70
78409;BME280;67697;50.750;-3.270;2023-06-22T08:11:57;101296.55;;;18.20;58.16
78409;BME280;67697;50.750;-3.270;2023-06-22T08:14:22;101298.50;;;18.29;59.23
78409;BME280;67697;50.750;-3.270;2023-06-22T08:16:47;101294.25;;;19.51;56.01
78409;BME280;67697;50.750;-3.270;2023-06-22T08:19:12;101296.68;;;20.10;54.89
78409;BME280;67697;50.750;-3.270;2023-06-22T08:21:38;101296.61;;;19.86;54.89
78409;BME280;67697;50.750;-3.270;2023-06-22T08:24:04;101300.53;;;19.23;55.14
78409;BME280;67697;50.750;-3.270;2023-06-22T08:26:29;101297.66;;;20.15;53.40
78409;BME280;67697;50.750;-3.270;2023-06-22T08:28:55;101295.88;;;19.75;55.23
78409;BME280;67697;50.750;-3.270;2023-06-22T08:31:21;101293.11;;;19.47;56.51
78409;BME280;67697;50.750;-3.270;2023-06-22T08:33:46;101290.01;;;19.89;55.22
78409;BME280;67697;50.750;-3.270;2023-06-22T08:36:12;101287.31;;;19.20;58.15
78409;BME280;67697;50.750;-3.270;2023-06-22T08:38:37;101286.94;;;18.93;58.47
78409;BME280;67697;50.750;-3.270;2023-06-22T08:41:03;101284.35;;;19.75;56.01
78409;BME280;67697;50.750;-3.270;2023-06-22T08:43:28;101285.01;;;19.08;57.24
78409;BME280;67697;50.750;-3.270;2023-06-22T08:45:53;101289.97;;;19.89;55.91
78409;BME280;67697;50.750;-3.270;2023-06-22T08:48:19;101294.17;;;20.40;54.19
78409;BME280;67697;50.750;-3.270;2023-06-22T08:50:44;101296.59;;;18.87;57.49
78409;BME280;67697;50.750;-3.270;2023-06-22T08:53:10;101297.11;;;18.92;56.60
78409;BME280;67697;50.750;-3.270;2023-06-22T08:55:36;101295.87;;;19.42;55.96
78409;BME280;67697;50.750;-3.270;2023-06-22T08:58:01;101294.17;;;20.66;53.85
78409;BME280;67697;50.750;-3.270;2023-06-22T09:00:26;101298.65;;;19.67;53.65
78409;BME280;67697;50.750;-3.270;2023-06-22T09:02:51;101301.53;;;20.51;52.52
78409;BME280;67697;50.750;-3.270;2023-06-22T09:05:17;101302.74;;;20.11;52.94
78409;BME280;67697;50.750;-3.270;2023-06-22T09:07:42;101300.55;;;20.09;51.97
78409;BME280;67697;50.750;-3.270;2023-06-22T09:10:08;101298.37;;;21.46;50.13
78409;BME280;67697;50.750;-3.270;2023-06-22T09:12:34;101300.57;;;20.54;49.67
78409;BME280;67697;50.750;-3.270;2023-06-22T09:14:59;101302.09;;;21.62;48.93
78409;BME280;67697;50.750;-3.270;2023-06-22T09:17:25;101298.56;;;21.83;46.38
78409;BME280;67697;50.750;-3.270;2023-06-22T09:19:50;101299.58;;;21.54;47.95
78409;BME280;67697;50.750;-3.270;2023-06-22T09:22:16;101300.91;;;21.78;46.18
78409;BME280;67697;50.750;-3.270;2023-06-22T09:24:41;101297.46;;;21.28;48.45
78409;BME280;67697;50.750;-3.270;2023-06-22T09:27:06;101300.20;;;21.10;47.27
78409;BME280;67697;50.750;-3.270;2023-06-22T09:29:32;101296.36;;;21.54;47.33
78409;BME280;67697;50.750;-3.270;2023-06-22T09:31:57;101301.56;;;21.94;46.82
78409;BME280;67697;50.750;-3.270;2023-06-22T09:34:23;101299.14;;;22.23;44.43
78409;BME280;67697;50.750;-3.270;2023-06-22T09:36:48;101298.75;;;21.37;45.43
78409;BME280;67697;50.750;-3.270;2023-06-22T09:39:14;101299.70;;;21.89;44.52
78409;BME280;67697;50.750;-3.270;2023-06-22T09:41:39;101300.34;;;22.16;44.35
78409;BME280;67697;50.750;-3.270;2023-06-22T09:44:05;101307.71;;;22.71;43.85
78409;BME280;67697;50.750;-3.270;2023-06-22T09:46:30;101309.51;;;22.05;44.12
78409;BME280;67697;50.750;-3.270;2023-06-22T09:48:56;101308.36;;;21.09;45.69
78409;BME280;67697;50.750;-3.270;2023-06-22T09:51:21;101313.92;;;21.27;45.66
78409;BME280;67697;50.750;-3.270;2023-06-22T09:53:47;101312.63;;;21.56;45.65
78409;BME280;67697;50.750;-3.270;2023-06-22T09:56:12;101317.62;;;21.17;47.01
78409;BME280;67697;50.750;-3.270;2023-06-22T09:58:38;101313.21;;;21.37;46.06
78409;BME280;67697;50.750;-3.270;2023-06-22T10:01:03;101315.47;;;21.08;47.41
78409;BME280;67697;50.750;-3.270;2023-06-22T10:03:28;101317.56;;;22.34;43.16
78409;BME280;67697;50.750;-3.270;2023-06-22T10:05:54;101314.07;;;21.87;43.90
78409;BME280;67697;50.750;-3.270;2023-06-22T10:08:19;101317.48;;;22.15;43.48
78409;BME280;67697;50.750;-3.270;2023-06-22T10:10:45;101315.83;;;22.65;41.89
78409;BME280;67697;50.750;-3.270;2023-06-22T10:13:11;101315.83;;;21.52;43.76
78409;BME280;67697;50.750;-3.270;2023-06-22T10:15:36;101317.28;;;21.03;44.05
78409;BME280;67697;50.750;-3.270;2023-06-22T10:18:01;101318.23;;;21.97;41.40
78409;BME280;67697;50.750;-3.270;2023-06-22T10:20:27;101315.38;;;22.19;41.29
78409;BME280;67697;50.750;-3.270;2023-06-22T10:22:52;101317.71;;;22.01;42.02
78409;BME280;67697;50.750;-3.270;2023-06-22T10:25:18;101321.67;;;22.26;41.41
78409;BME280;67697;50.750;-3.270;2023-06-22T10:27:44;101320.09;;;22.45;41.61
78409;BME280;67697;50.750;-3.270;2023-06-22T10:30:14;101316.49;;;23.07;38.82
78409;BME280;67697;50.750;-3.270;2023-06-22T10:32:34;101315.91;;;23.12;38.89
78409;BME280;67697;50.750;-3.270;2023-06-22T10:35:01;101312.93;;;22.56;39.89
78409;BME280;67697;50.750;-3.270;2023-06-22T10:37:25;101317.27;;;22.56;40.67
78409;BME280;67697;50.750;-3.270;2023-06-22T10:39:51;101317.80;;;22.25;40.97
78409;BME280;67697;50.750;-3.270;2023-06-22T10:42:16;101322.81;;;22.52;39.07
78409;BME280;67697;50.750;-3.270;2023-06-22T10:44:42;101320.35;;;22.61;39.19
78409;BME280;67697;50.750;-3.270;2023-06-22T10:47:07;101315.68;;;23.97;37.92
78409;BME280;67697;50.750;-3.270;2023-06-22T10:49:33;101318.28;;;23.71;38.16
78409;BME280;67697;50.750;-3.270;2023-06-22T10:51:58;101326.23;;;22.44;39.74
78409;BME280;67697;50.750;-3.270;2023-06-22T10:54:24;101324.67;;;22.74;38.67
78409;BME280;67697;50.750;-3.270;2023-06-22T10:56:49;101320.60;;;23.27;37.60
78409;BME280;67697;50.750;-3.270;2023-06-22T10:59:15;101323.36;;;23.29;37.99
78409;BME280;67697;50.750;-3.270;2023-06-22T11:01:40;101320.44;;;23.94;38.00
78409;BME280;67697;50.750;-3.270;2023-06-22T11:04:05;101323.43;;;23.63;37.94
78409;BME280;67697;50.750;-3.270;2023-06-22T11:06:31;101322.60;;;23.04;39.83
78409;BME280;67697;50.750;-3.270;2023-06-22T11:08:57;101327.45;;;23.05;38.76
78409;BME280;67697;50.750;-3.270;2023-06-22T11:11:22;101320.44;;;23.35;36.91
78409;BME280;67697;50.750;-3.270;2023-06-22T11:13:48;101315.78;;;24.11;36.54
78409;BME280;67697;50.750;-3.270;2023-06-22T11:16:13;101310.15;;;24.43;36.76
78409;BME280;67697;50.750;-3.270;2023-06-22T11:18:38;101309.26;;;24.19;41.14
78409;BME280;67697;50.750;-3.270;2023-06-22T11:21:04;101305.47;;;23.89;40.46
78409;BME280;67697;50.750;-3.270;2023-06-22T11:23:29;101311.68;;;23.52;40.22
78409;BME280;67697;50.750;-3.270;2023-06-22T11:25:55;101307.53;;;23.97;41.59
78409;BME280;67697;50.750;-3.270;2023-06-22T11:28:21;101305.84;;;23.88;38.81
78409;BME280;67697;50.750;-3.270;2023-06-22T11:30:46;101306.77;;;23.58;39.77
78409;BME280;67697;50.750;-3.270;2023-06-22T11:33:11;101305.78;;;24.53;38.97
78409;BME280;67697;50.750;-3.270;2023-06-22T11:35:36;101307.65;;;24.37;38.10
78409;BME280;67697;50.750;-3.270;2023-06-22T11:38:02;101310.32;;;24.32;37.44
78409;BME280;67697;50.750;-3.270;2023-06-22T11:40:27;101310.91;;;24.77;35.05
78409;BME280;67697;50.750;-3.270;2023-06-22T11:42:53;101306.87;;;24.31;35.19
78409;BME280;67697;50.750;-3.270;2023-06-22T11:45:18;101311.72;;;23.47;38.65
78409;BME280;67697;50.750;-3.270;2023-06-22T11:47:44;101311.38;;;23.91;36.99
78409;BME280;67697;50.750;-3.270;2023-06-22T11:50:10;101310.17;;;24.22;37.40
78409;BME280;67697;50.750;-3.270;2023-06-22T11:52:35;101309.29;;;24.15;38.78
78409;BME280;67697;50.750;-3.270;2023-06-22T11:55:00;101307.37;;;24.40;35.43
78409;BME280;67697;50.750;-3.270;2023-06-22T11:57:26;101304.85;;;25.22;36.18
78409;BME280;67697;50.750;-3.270;2023-06-22T11:59:51;101312.10;;;24.90;35.36
78409;BME280;67697;50.750;-3.270;2023-06-22T12:02:16;101308.14;;;25.15;35.29
78409;BME280;67697;50.750;-3.270;2023-06-22T12:04:42;101311.37;;;24.20;36.66
78409;BME280;67697;50.750;-3.270;2023-06-22T12:07:07;101310.89;;;24.89;36.03
78409;BME280;67697;50.750;-3.270;2023-06-22T12:09:33;101306.00;;;24.02;37.41
78409;BME280;67697;50.750;-3.270;2023-06-22T12:11:58;101302.34;;;24.24;38.18
78409;BME280;67697;50.750;-3.270;2023-06-22T12:14:24;101307.13;;;24.15;37.37
78409;BME280;67697;50.750;-3.270;2023-06-22T12:16:49;101303.30;;;23.69;37.55
78409;BME280;67697;50.750;-3.270;2023-06-22T12:19:15;101299.91;;;24.32;36.14
78409;BME280;67697;50.750;-3.270;2023-06-22T12:21:40;101298.57;;;24.29;36.66
78409;BME280;67697;50.750;-3.270;2023-06-22T12:24:06;101302.34;;;23.96;36.37
78409;BME280;67697;50.750;-3.270;2023-06-22T12:26:31;101295.17;;;24.35;37.46
78409;BME280;67697;50.750;-3.270;2023-06-22T12:28:56;101300.70;;;24.45;35.86
78409;BME280;67697;50.750;-3.270;2023-06-22T12:31:22;101298.45;;;24.50;35.96